sensor_id;sensor_type;location;lat;lon;timestamp;P1;durP1;ratioP1;P2;durP2;ratioP2
15557;SDS011;7880;50.110;9.372;2023-11-21T00:02:46;3.6692307692307695;;;1.6999999999999995;;
15557;SDS011;7880;50.110;9.372;2023-11-21T00:07:55;2.469230769230769;;;1.469230769230769;;
15557;SDS011;7880;50.110;9.372;2023-11-21T00:12:55;2.830769230769231;;;1.2307692307692308;;
15557;SDS011;7880;50.110;9.372;2023-11-21T00:17:59;2.8692307692307684;;;1.4;;
15557;SDS011;7880;50.110;9.372;2023-11-21T00:22:59;4.338461538461537;;;1.6999999999999995;;
15557;SDS011;7880;50.110;9.372;2023-11-21T00:28:03;2.1000000000000005;;;1.1999999999999997;;
15557;SDS011;7880;50.110;9.372;2023-11-21T00:33:08;5.038461538461539;;;1.6307692307692305;;
15557;SDS011;7880;50.110;9.372;2023-11-21T00:38:13;1.8615384615384618;;;1.2307692307692308;;
15557;SDS011;7880;50.110;9.372;2023-11-21T00:43:14;3.938461538461538;;;1.3000000000000003;;
15557;SDS011;7880;50.110;9.372;2023-11-21T00:48:18;3.369230769230768;;;1.4;;
15557;SDS011;7880;50.110;9.372;2023-11-21T00:53:32;1.4;;;1.0999999999999999;;
15557;SDS011;7880;50.110;9.372;2023-11-21T00:58:26;5.876923076923076;;;1.5;;
15557;SDS011;7880;50.110;9.372;2023-11-21T01:03:46;2.3999999999999995;;;1.0999999999999999;;
15557;SDS011;7880;50.110;9.372;2023-11-21T01:08:34;2.0615384615384618;;;0.9384615384615386;;
15557;SDS011;7880;50.110;9.372;2023-11-21T01:13:40;1.0999999999999999;;;1.0;;
15557;SDS011;7880;50.110;9.372;2023-11-21T01:18:43;1.8000000000000005;;;1.0;;
15557;SDS011;7880;50.110;9.372;2023-11-21T01:23:44;1.8999999999999997;;;1.4;;
15557;SDS011;7880;50.110;9.372;2023-11-21T01:28:55;3.5384615384615383;;;1.3000000000000003;;
15557;SDS011;7880;50.110;9.372;2023-11-21T01:33:56;1.8000000000000005;;;1.0999999999999999;;
15557;SDS011;7880;50.110;9.372;2023-11-21T01:39:16;1.5;;;1.3000000000000003;;
15557;SDS011;7880;50.110;9.372;2023-11-21T01:44:13;5.307692307692306;;;1.1999999999999997;;
15557;SDS011;7880;50.110;9.372;2023-11-21T01:49:36;3.7692307692307705;;;1.6;;
15557;SDS011;7880;50.110;9.372;2023-11-21T01:54:33;1.8000000000000005;;;1.2692307692307692;;
15557;SDS011;7880;50.110;9.372;2023-11-21T01:59:43;3.438461538461538;;;1.5;;
15557;SDS011;7880;50.110;9.372;2023-11-21T02:04:46;1.1461538461538459;;;1.046153846153846;;
15557;SDS011;7880;50.110;9.372;2023-11-21T02:09:45;1.469230769230769;;;1.0999999999999999;;
15557;SDS011;7880;50.110;9.372;2023-11-21T02:14:53;1.4;;;1.3000000000000003;;
15557;SDS011;7880;50.110;9.372;2023-11-21T02:19:57;3.238461538461539;;;1.5692307692307692;;
15557;SDS011;7880;50.110;9.372;2023-11-21T02:24:59;3.238461538461539;;;1.469230769230769;;
15557;SDS011;7880;50.110;9.372;2023-11-21T02:30:14;2.146153846153847;;;1.6999999999999995;;
15557;SDS011;7880;50.110;9.372;2023-11-21T02:35:12;3.169230769230769;;;1.5;;
15557;SDS011;7880;50.110;9.372;2023-11-21T02:40:17;2.3615384615384616;;;1.530769230769231;;
15557;SDS011;7880;50.110;9.372;2023-11-21T02:45:18;2.7692307692307705;;;1.530769230769231;;
15557;SDS011;7880;50.110;9.372;2023-11-21T02:50:26;2.7692307692307705;;;2.169230769230769;;
15557;SDS011;7880;50.110;9.372;2023-11-21T02:55:25;3.761538461538461;;;1.6;;
15557;SDS011;7880;50.110;9.372;2023-11-21T03:00:30;1.4;;;1.3000000000000003;;
15557;SDS011;7880;50.110;9.372;2023-11-21T03:05:58;1.6923076923076918;;;1.3615384615384616;;
15557;SDS011;7880;50.110;9.372;2023-11-21T03:10:43;5.138461538461538;;;1.6999999999999995;;
15557;SDS011;7880;50.110;9.372;2023-11-21T03:15:45;1.3000000000000003;;;1.1999999999999997;;
15557;SDS011;7880;50.110;9.372;2023-11-21T03:20:50;2.638461538461539;;;1.4;;
15557;SDS011;7880;50.110;9.372;2023-11-21T03:26:18;2.9769230769230766;;;1.4307692307692308;;
15557;SDS011;7880;50.110;9.372;2023-11-21T03:31:04;3.0;;;1.6;;
15557;SDS011;7880;50.110;9.372;2023-11-21T03:36:06;5.338461538461538;;;1.4;;
15557;SDS011;7880;50.110;9.372;2023-11-21T03:41:12;2.1999999999999997;;;1.3000000000000003;;
15557;SDS011;7880;50.110;9.372;2023-11-21T03:46:18;1.5;;;1.3000000000000003;;
15557;SDS011;7880;50.110;9.372;2023-11-21T03:51:29;3.469230769230769;;;1.1307692307692305;;
15557;SDS011;7880;50.110;9.372;2023-11-21T03:56:34;2.8;;;1.1999999999999997;;
15557;SDS011;7880;50.110;9.372;2023-11-21T04:01:45;2.9615384615384617;;;1.6;;
15557;SDS011;7880;50.110;9.372;2023-11-21T04:06:42;2.938461538461538;;;1.2692307692307692;;
15557;SDS011;7880;50.110;9.372;2023-11-21T04:11:48;1.4;;;1.1307692307692305;;
15557;SDS011;7880;50.110;9.372;2023-11-21T04:16:51;13.207692307692307;;;5.130769230769232;;
15557;SDS011;7880;50.110;9.372;2023-11-21T04:21:56;5.130769230769232;;;3.3307692307692305;;
15557;SDS011;7880;50.110;9.372;2023-11-21T04:27:04;3.43076923076923;;;2.6000000000000005;;
15557;SDS011;7880;50.110;9.372;2023-11-21T04:32:25;3.3461538461538463;;;1.6461538461538459;;
15557;SDS011;7880;50.110;9.372;2023-11-21T04:37:26;1.3692307692307695;;;0.9000000000000002;;
15557;SDS011;7880;50.110;9.372;2023-11-21T04:42:35;1.969230769230769;;;0.7;;
15557;SDS011;7880;50.110;9.372;2023-11-21T04:47:38;0.8;;;0.6692307692307693;;
15557;SDS011;7880;50.110;9.372;2023-11-21T04:52:42;3.0384615384615383;;;1.169230769230769;;
15557;SDS011;7880;50.110;9.372;2023-11-21T04:57:46;5.369230769230768;;;2.5;;
15557;SDS011;7880;50.110;9.372;2023-11-21T05:02:45;3.838461538461539;;;1.5692307692307692;;
15557;SDS011;7880;50.110;9.372;2023-11-21T05:07:49;4.799999999999999;;;1.0307692307692307;;
15557;SDS011;7880;50.110;9.372;2023-11-21T05:12:54;3.469230769230769;;;1.3000000000000003;;
15557;SDS011;7880;50.110;9.372;2023-11-21T05:18:00;1.6999999999999995;;;1.0999999999999999;;
15557;SDS011;7880;50.110;9.372;2023-11-21T05:23:07;5.869230769230768;;;3.130769230769232;;
15557;SDS011;7880;50.110;9.372;2023-11-21T05:27:09;9.038461538461538;;;2.7;;
15557;SDS011;7880;50.110;9.372;2023-11-21T05:32:12;3.6384615384615384;;;1.969230769230769;;
15557;SDS011;7880;50.110;9.372;2023-11-21T05:37:17;2.5;;;1.4;;
15557;SDS011;7880;50.110;9.372;2023-11-21T05:42:23;3.561538461538462;;;2.0;;
15557;SDS011;7880;50.110;9.372;2023-11-21T05:47:30;9.569230769230769;;;2.93076923076923;;
15557;SDS011;7880;50.110;9.372;2023-11-21T05:52:32;4.961538461538462;;;3.100000000000001;;
15557;SDS011;7880;50.110;9.372;2023-11-21T05:57:36;6.730769230769231;;;3.130769230769232;;
15557;SDS011;7880;50.110;9.372;2023-11-21T06:02:39;7.746153846153844;;;3.600000000000001;;
15557;SDS011;7880;50.110;9.372;2023-11-21T06:07:45;9.707692307692309;;;3.030769230769231;;
15557;SDS011;7880;50.110;9.372;2023-11-21T06:12:52;8.66153846153846;;;2.830769230769231;;
15557;SDS011;7880;50.110;9.372;2023-11-21T06:17:57;4.538461538461538;;;1.969230769230769;;
15557;SDS011;7880;50.110;9.372;2023-11-21T06:23:10;3.630769230769232;;;2.030769230769231;;
15557;SDS011;7880;50.110;9.372;2023-11-21T06:28:17;5.707692307692307;;;2.1000000000000005;;
15557;SDS011;7880;50.110;9.372;2023-11-21T06:33:39;4.06923076923077;;;2.1999999999999997;;
15557;SDS011;7880;50.110;9.372;2023-11-21T06:38:32;2.292307692307692;;;1.8999999999999997;;
15557;SDS011;7880;50.110;9.372;2023-11-21T06:43:24;5.038461538461539;;;2.3000000000000003;;
15557;SDS011;7880;50.110;9.372;2023-11-21T06:48:30;4.269230769230769;;;1.6;;
15557;SDS011;7880;50.110;9.372;2023-11-21T06:53:36;1.8000000000000005;;;1.0999999999999999;;
15557;SDS011;7880;50.110;9.372;2023-11-21T06:58:35;1.0;;;0.5999999999999999;;
15557;SDS011;7880;50.110;9.372;2023-11-21T07:03:44;2.0692307692307694;;;1.330769230769231;;
15557;SDS011;7880;50.110;9.372;2023-11-21T07:09:01;3.6230769230769226;;;2.7307692307692295;;
15557;SDS011;7880;50.110;9.372;2023-11-21T07:14:07;3.7000000000000006;;;2.1999999999999997;;
15557;SDS011;7880;50.110;9.372;2023-11-21T07:19:12;1.5923076923076924;;;1.330769230769231;;
15557;SDS011;7880;50.110;9.372;2023-11-21T07:24:11;3.8307692307692305;;;2.1000000000000005;;
15557;SDS011;7880;50.110;9.372;2023-11-21T07:29:14;6.507692307692308;;;2.1999999999999997;;
15557;SDS011;7880;50.110;9.372;2023-11-21T07:34:19;2.7692307692307705;;;1.6692307692307695;;
15557;SDS011;7880;50.110;9.372;2023-11-21T07:39:22;1.1307692307692305;;;1.0307692307692307;;
15557;SDS011;7880;50.110;9.372;2023-11-21T07:44:36;3.0384615384615383;;;1.3000000000000003;;
15557;SDS011;7880;50.110;9.372;2023-11-21T07:49:34;4.738461538461538;;;2.030769230769231;;
15557;SDS011;7880;50.110;9.372;2023-11-21T07:54:38;3.2;;;1.4;;
15557;SDS011;7880;50.110;9.372;2023-11-21T07:59:45;2.8692307692307684;;;2.0;;
15557;SDS011;7880;50.110;9.372;2023-11-21T08:04:50;2.7692307692307705;;;2.3999999999999995;;
15557;SDS011;7880;50.110;9.372;2023-11-21T08:09:54;4.269230769230769;;;2.3999999999999995;;
15557;SDS011;7880;50.110;9.372;2023-11-21T08:15:08;8.569230769230769;;;5.5;;
15557;SDS011;7880;50.110;9.372;2023-11-21T08:20:09;3.100000000000001;;;1.8000000000000005;;
15557;SDS011;7880;50.110;9.372;2023-11-21T08:25:04;3.946153846153845;;;1.8000000000000005;;
15557;SDS011;7880;50.110;9.372;2023-11-21T08:30:10;4.5;;;1.8000000000000005;;
15557;SDS011;7880;50.110;9.372;2023-11-21T08:35:18;3.7999999999999994;;;1.9307692307692308;;
15557;SDS011;7880;50.110;9.372;2023-11-21T08:40:16;3.2307692307692295;;;2.530769230769231;;
15557;SDS011;7880;50.110;9.372;2023-11-21T08:45:19;5.415384615384615;;;2.3384615384615377;;
15557;SDS011;7880;50.110;9.372;2023-11-21T08:50:25;7.076923076923077;;;3.7000000000000006;;
15557;SDS011;7880;50.110;9.372;2023-11-21T08:55:37;3.399999999999999;;;2.030769230769231;;
15557;SDS011;7880;50.110;9.372;2023-11-21T09:00:34;2.7307692307692295;;;1.8307692307692305;;
15557;SDS011;7880;50.110;9.372;2023-11-21T09:05:44;2.738461538461539;;;1.969230769230769;;
15557;SDS011;7880;50.110;9.372;2023-11-21T09:10:45;2.5384615384615383;;;1.469230769230769;;
15557;SDS011;7880;50.110;9.372;2023-11-21T09:15:55;1.8692307692307695;;;1.5;;
15557;SDS011;7880;50.110;9.372;2023-11-21T09:20:46;4.738461538461538;;;1.7307692307692308;;
15557;SDS011;7880;50.110;9.372;2023-11-21T09:25:50;2.3999999999999995;;;1.330769230769231;;
15557;SDS011;7880;50.110;9.372;2023-11-21T09:30:57;2.7692307692307705;;;1.4;;
15557;SDS011;7880;50.110;9.372;2023-11-21T09:35:57;1.6;;;1.1999999999999997;;
15557;SDS011;7880;50.110;9.372;2023-11-21T09:41:09;2.161538461538462;;;1.530769230769231;;
15557;SDS011;7880;50.110;9.372;2023-11-21T09:46:04;3.161538461538461;;;2.030769230769231;;
15557;SDS011;7880;50.110;9.372;2023-11-21T09:51:09;2.169230769230769;;;1.2692307692307692;;
15557;SDS011;7880;50.110;9.372;2023-11-21T09:56:10;3.761538461538461;;;1.4;;
15557;SDS011;7880;50.110;9.372;2023-11-21T10:01:15;4.223076923076923;;;1.6;;
15557;SDS011;7880;50.110;9.372;2023-11-21T10:06:30;2.530769230769231;;;1.5;;
15557;SDS011;7880;50.110;9.372;2023-11-21T10:11:26;3.2692307692307705;;;2.330769230769231;;
15557;SDS011;7880;50.110;9.372;2023-11-21T10:16:27;9.738461538461538;;;5.0;;
15557;SDS011;7880;50.110;9.372;2023-11-21T10:21:30;10.553846153846155;;;3.1538461538461537;;
15557;SDS011;7880;50.110;9.372;2023-11-21T10:26:39;4.838461538461538;;;1.6;;
15557;SDS011;7880;50.110;9.372;2023-11-21T10:31:20;2.061538461538462;;;1.3000000000000003;;
15557;SDS011;7880;50.110;9.372;2023-11-21T10:36:25;2.8692307692307697;;;1.530769230769231;;
15557;SDS011;7880;50.110;9.372;2023-11-21T10:41:27;2.269230769230769;;;1.3000000000000003;;
15557;SDS011;7880;50.110;9.372;2023-11-21T10:46:35;2.1923076923076925;;;1.330769230769231;;
15557;SDS011;7880;50.110;9.372;2023-11-21T10:51:45;5.238461538461538;;;2.0;;
15557;SDS011;7880;50.110;9.372;2023-11-21T10:56:44;4.96923076923077;;;1.6;;
15557;SDS011;7880;50.110;9.372;2023-11-21T11:01:45;2.7;;;1.6999999999999995;;
15557;SDS011;7880;50.110;9.372;2023-11-21T11:06:45;3.969230769230769;;;1.8000000000000005;;
15557;SDS011;7880;50.110;9.372;2023-11-21T11:11:49;2.969230769230769;;;1.6999999999999995;;
15557;SDS011;7880;50.110;9.372;2023-11-21T11:16:55;3.892307692307693;;;2.8;;
15557;SDS011;7880;50.110;9.372;2023-11-21T11:21:58;6.184615384615384;;;3.0615384615384618;;
15557;SDS011;7880;50.110;9.372;2023-11-21T11:27:00;2.5;;;1.6;;
15557;SDS011;7880;50.110;9.372;2023-11-21T11:32:21;3.0923076923076915;;;1.6307692307692305;;
15557;SDS011;7880;50.110;9.372;2023-11-21T11:37:16;1.6999999999999995;;;1.5;;
15557;SDS011;7880;50.110;9.372;2023-11-21T11:42:14;4.469230769230769;;;1.4307692307692308;;
15557;SDS011;7880;50.110;9.372;2023-11-21T11:47:20;2.0;;;1.6;;
15557;SDS011;7880;50.110;9.372;2023-11-21T11:52:40;3.969230769230769;;;1.6;;
15557;SDS011;7880;50.110;9.372;2023-11-21T11:57:29;3.5384615384615383;;;2.1999999999999997;;
15557;SDS011;7880;50.110;9.372;2023-11-21T12:02:33;2.1384615384615384;;;1.0999999999999999;;
15557;SDS011;7880;50.110;9.372;2023-11-21T12:07:41;3.7153846153846164;;;2.0;;
15557;SDS011;7880;50.110;9.372;2023-11-21T12:12:36;6.576923076923077;;;2.1000000000000005;;
15557;SDS011;7880;50.110;9.372;2023-11-21T12:17:45;5.307692307692306;;;1.8999999999999997;;
15557;SDS011;7880;50.110;9.372;2023-11-21T12:22:44;6.56923076923077;;;2.261538461538461;;
15557;SDS011;7880;50.110;9.372;2023-11-21T12:27:51;3.530769230769231;;;2.330769230769231;;
15557;SDS011;7880;50.110;9.372;2023-11-21T12:32:51;3.7999999999999994;;;2.030769230769231;;
15557;SDS011;7880;50.110;9.372;2023-11-21T12:37:59;6.338461538461538;;;2.0;;
15557;SDS011;7880;50.110;9.372;2023-11-21T12:42:53;4.2384615384615385;;;1.8999999999999997;;
15557;SDS011;7880;50.110;9.372;2023-11-21T12:48:00;2.469230769230769;;;1.530769230769231;;
15557;SDS011;7880;50.110;9.372;2023-11-21T12:53:03;10.676923076923076;;;2.3000000000000003;;
15557;SDS011;7880;50.110;9.372;2023-11-21T12:58:09;5.092307692307693;;;2.5;;
15557;SDS011;7880;50.110;9.372;2023-11-21T13:03:13;5.3538461538461535;;;2.1999999999999997;;
15557;SDS011;7880;50.110;9.372;2023-11-21T13:08:18;11.215384615384618;;;3.5;;
15557;SDS011;7880;50.110;9.372;2023-11-21T13:13:17;4.369230769230769;;;2.169230769230769;;
15557;SDS011;7880;50.110;9.372;2023-11-21T13:18:22;7.330769230769231;;;2.969230769230769;;
15557;SDS011;7880;50.110;9.372;2023-11-21T13:23:21;5.730769230769231;;;2.230769230769231;;
15557;SDS011;7880;50.110;9.372;2023-11-21T13:28:24;6.0;;;3.8307692307692305;;
15557;SDS011;7880;50.110;9.372;2023-11-21T13:33:28;3.661538461538461;;;2.5615384615384618;;
15557;SDS011;7880;50.110;9.372;2023-11-21T13:38:33;5.93076923076923;;;2.830769230769231;;
15557;SDS011;7880;50.110;9.372;2023-11-21T13:43:31;6.907692307692309;;;3.369230769230768;;
15557;SDS011;7880;50.110;9.372;2023-11-21T13:48:42;7.661538461538461;;;2.8;;
15557;SDS011;7880;50.110;9.372;2023-11-21T13:53:43;7.046153846153843;;;2.1999999999999997;;
15557;SDS011;7880;50.110;9.372;2023-11-21T13:58:51;7.369230769230768;;;2.3000000000000003;;
15557;SDS011;7880;50.110;9.372;2023-11-21T14:03:52;9.376923076923076;;;2.8;;
15557;SDS011;7880;50.110;9.372;2023-11-21T14:08:50;6.46923076923077;;;2.6000000000000005;;
15557;SDS011;7880;50.110;9.372;2023-11-21T14:13:59;16.153846153846153;;;3.399999999999999;;
15557;SDS011;7880;50.110;9.372;2023-11-21T14:19:04;7.700000000000002;;;3.100000000000001;;
15557;SDS011;7880;50.110;9.372;2023-11-21T14:24:01;5.653846153846156;;;2.530769230769231;;
15557;SDS011;7880;50.110;9.372;2023-11-21T14:29:05;7.038461538461538;;;2.7;;
15557;SDS011;7880;50.110;9.372;2023-11-21T14:34:08;15.253846153846151;;;3.2692307692307705;;
15557;SDS011;7880;50.110;9.372;2023-11-21T14:39:22;10.03076923076923;;;3.43076923076923;;
15557;SDS011;7880;50.110;9.372;2023-11-21T14:44:15;15.223076923076926;;;3.2;;
15557;SDS011;7880;50.110;9.372;2023-11-21T14:49:19;12.630769230769225;;;4.8999999999999995;;
15557;SDS011;7880;50.110;9.372;2023-11-21T14:54:39;20.24615384615384;;;11.261538461538464;;
15557;SDS011;7880;50.110;9.372;2023-11-21T14:59:27;9.33076923076923;;;5.3307692307692305;;
15557;SDS011;7880;50.110;9.372;2023-11-21T15:04:36;15.038461538461538;;;10.069230769230769;;
15557;SDS011;7880;50.110;9.372;2023-11-21T15:09:46;11.076923076923082;;;5.799999999999998;;
15557;SDS011;7880;50.110;9.372;2023-11-21T15:14:39;14.10769230769231;;;4.061538461538462;;
15557;SDS011;7880;50.110;9.372;2023-11-21T15:19:45;10.63846153846154;;;4.569230769230769;;
15557;SDS011;7880;50.110;9.372;2023-11-21T15:24:47;6.384615384615383;;;3.646153846153848;;
15557;SDS011;7880;50.110;9.372;2023-11-21T15:29:55;10.246153846153845;;;3.8769230769230765;;
15557;SDS011;7880;50.110;9.372;2023-11-21T15:33:30;19.39230769230769;;;5.63846153846154;;
15557;SDS011;7880;50.110;9.372;2023-11-21T15:38:33;7.299999999999998;;;3.93076923076923;;
15557;SDS011;7880;50.110;9.372;2023-11-21T15:43:37;11.469230769230771;;;6.599999999999999;;
15557;SDS011;7880;50.110;9.372;2023-11-21T15:48:43;20.061538461538458;;;13.699999999999998;;
15557;SDS011;7880;50.110;9.372;2023-11-21T15:53:45;12.576923076923082;;;6.06923076923077;;
15557;SDS011;7880;50.110;9.372;2023-11-21T15:58:47;15.907692307692308;;;5.976923076923076;;
15557;SDS011;7880;50.110;9.372;2023-11-21T16:03:51;13.038461538461538;;;6.369230769230768;;
15557;SDS011;7880;50.110;9.372;2023-11-21T16:08:52;9.638461538461538;;;5.4;;
15557;SDS011;7880;50.110;9.372;2023-11-21T16:13:56;10.676923076923076;;;5.06923076923077;;
15557;SDS011;7880;50.110;9.372;2023-11-21T16:19:04;7.992307692307691;;;4.061538461538462;;
15557;SDS011;7880;50.110;9.372;2023-11-21T16:24:03;8.330769230769231;;;4.3999999999999995;;
15557;SDS011;7880;50.110;9.372;2023-11-21T16:29:06;11.138461538461538;;;5.299999999999999;;
15557;SDS011;7880;50.110;9.372;2023-11-21T16:34:37;17.353846153846153;;;6.438461538461538;;
15557;SDS011;7880;50.110;9.372;2023-11-21T16:39:19;6.123076923076924;;;2.830769230769231;;
15557;SDS011;7880;50.110;9.372;2023-11-21T16:44:30;5.83076923076923;;;3.7999999999999994;;
15557;SDS011;7880;50.110;9.372;2023-11-21T16:49:29;8.707692307692309;;;5.06923076923077;;
15557;SDS011;7880;50.110;9.372;2023-11-21T16:54:30;9.807692307692308;;;4.799999999999999;;
15557;SDS011;7880;50.110;9.372;2023-11-21T16:59:35;7.83846153846154;;;3.5461538461538464;;
15557;SDS011;7880;50.110;9.372;2023-11-21T17:04:43;13.046153846153844;;;5.700000000000002;;
15557;SDS011;7880;50.110;9.372;2023-11-21T17:09:46;8.192307692307693;;;5.86153846153846;;
15557;SDS011;7880;50.110;9.372;2023-11-21T17:20:08;12.83076923076923;;;5.692307692307694;;
15557;SDS011;7880;50.110;9.372;2023-11-21T17:25:01;10.7;;;6.561538461538462;;
15557;SDS011;7880;50.110;9.372;2023-11-21T17:30:03;14.13846153846154;;;6.900000000000001;;
15557;SDS011;7880;50.110;9.372;2023-11-21T17:35:07;11.246153846153849;;;6.700000000000002;;
15557;SDS011;7880;50.110;9.372;2023-11-21T17:40:12;9.338461538461537;;;5.961538461538462;;
15557;SDS011;7880;50.110;9.372;2023-11-21T17:45:20;7.338461538461539;;;4.6692307692307695;;
15557;SDS011;7880;50.110;9.372;2023-11-21T17:50:24;12.10769230769231;;;4.830769230769231;;
15557;SDS011;7880;50.110;9.372;2023-11-21T17:55:23;32.69230769230769;;;17.307692307692307;;
15557;SDS011;7880;50.110;9.372;2023-11-21T18:00:33;38.57692307692309;;;34.45384615384614;;
15557;SDS011;7880;50.110;9.372;2023-11-21T18:05:36;12.869230769230775;;;8.169230769230769;;
15557;SDS011;7880;50.110;9.372;2023-11-21T18:10:37;8.184615384615382;;;5.730769230769231;;
15557;SDS011;7880;50.110;9.372;2023-11-21T18:15:58;7.9384615384615405;;;5.161538461538464;;
15557;SDS011;7880;50.110;9.372;2023-11-21T18:20:57;9.061538461538461;;;5.3307692307692305;;
15557;SDS011;7880;50.110;9.372;2023-11-21T18:26:01;9.338461538461539;;;5.5;;
15557;SDS011;7880;50.110;9.372;2023-11-21T18:31:19;8.738461538461538;;;4.5;;
15557;SDS011;7880;50.110;9.372;2023-11-21T18:36:21;7.86153846153846;;;4.861538461538462;;
15557;SDS011;7880;50.110;9.372;2023-11-21T18:41:31;8.976923076923077;;;5.56923076923077;;
15557;SDS011;7880;50.110;9.372;2023-11-21T18:46:29;9.86923076923077;;;5.9;;
15557;SDS011;7880;50.110;9.372;2023-11-21T18:51:44;5.130769230769232;;;4.299999999999999;;
15557;SDS011;7880;50.110;9.372;2023-11-21T18:56:38;6.038461538461541;;;3.2;;
15557;SDS011;7880;50.110;9.372;2023-11-21T19:01:54;18.80769230769231;;;7.169230769230769;;
15557;SDS011;7880;50.110;9.372;2023-11-21T19:06:47;3.0923076923076915;;;1.6999999999999995;;
15557;SDS011;7880;50.110;9.372;2023-11-21T19:11:53;6.446153846153846;;;2.6307692307692316;;
15557;SDS011;7880;50.110;9.372;2023-11-21T19:16:56;12.469230769230771;;;3.600000000000001;;
15557;SDS011;7880;50.110;9.372;2023-11-21T19:21:59;4.938461538461538;;;1.6999999999999995;;
15557;SDS011;7880;50.110;9.372;2023-11-21T19:27:02;1.4615384615384621;;;1.3000000000000003;;
15557;SDS011;7880;50.110;9.372;2023-11-21T19:32:04;3.938461538461538;;;1.8000000000000005;;
15557;SDS011;7880;50.110;9.372;2023-11-21T19:37:11;2.3000000000000003;;;1.5;;
15557;SDS011;7880;50.110;9.372;2023-11-21T19:42:17;3.1384615384615384;;;2.269230769230769;;
15557;SDS011;7880;50.110;9.372;2023-11-21T19:47:14;2.7846153846153854;;;2.161538461538462;;
15557;SDS011;7880;50.110;9.372;2023-11-21T19:52:17;3.2999999999999994;;;1.4307692307692308;;
15557;SDS011;7880;50.110;9.372;2023-11-21T19:57:21;2.3000000000000003;;;1.7307692307692308;;
15557;SDS011;7880;50.110;9.372;2023-11-21T20:02:24;4.6000000000000005;;;3.600000000000001;;
15557;SDS011;7880;50.110;9.372;2023-11-21T20:07:28;3.3307692307692305;;;2.0;;
15557;SDS011;7880;50.110;9.372;2023-11-21T20:12:30;5.107692307692308;;;2.0692307692307694;;
15557;SDS011;7880;50.110;9.372;2023-11-21T20:17:37;6.192307692307694;;;3.369230769230768;;
15557;SDS011;7880;50.110;9.372;2023-11-21T20:22:38;4.0;;;3.2307692307692295;;
15557;SDS011;7880;50.110;9.372;2023-11-21T20:27:43;7.238461538461536;;;4.1000000000000005;;
15557;SDS011;7880;50.110;9.372;2023-11-21T20:32:50;6.0;;;3.030769230769231;;
15557;SDS011;7880;50.110;9.372;2023-11-21T20:37:39;4.046153846153848;;;3.0;;
15557;SDS011;7880;50.110;9.372;2023-11-21T20:43:00;3.438461538461538;;;2.669230769230769;;
15557;SDS011;7880;50.110;9.372;2023-11-21T20:47:53;7.169230769230769;;;3.2;;
15557;SDS011;7880;50.110;9.372;2023-11-21T20:52:56;4.830769230769231;;;3.399999999999999;;
15557;SDS011;7880;50.110;9.372;2023-11-21T20:57:59;5.261538461538462;;;3.5;;
15557;SDS011;7880;50.110;9.372;2023-11-21T21:03:00;5.6692307692307695;;;3.2999999999999994;;
15557;SDS011;7880;50.110;9.372;2023-11-21T21:08:02;4.23076923076923;;;2.8;;
15557;SDS011;7880;50.110;9.372;2023-11-21T21:13:06;3.5538461538461528;;;2.761538461538461;;
15557;SDS011;7880;50.110;9.372;2023-11-21T21:18:10;3.5384615384615383;;;2.369230769230769;;
15557;SDS011;7880;50.110;9.372;2023-11-21T21:23:19;4.4923076923076914;;;3.0307692307692307;;
15557;SDS011;7880;50.110;9.372;2023-11-21T21:28:18;4.0;;;3.0;;
15557;SDS011;7880;50.110;9.372;2023-11-21T21:33:19;4.93076923076923;;;3.2307692307692295;;
15557;SDS011;7880;50.110;9.372;2023-11-21T21:38:30;3.961538461538461;;;2.7615384615384624;;
15557;SDS011;7880;50.110;9.372;2023-11-21T21:43:31;4.661538461538462;;;3.100000000000001;;
15557;SDS011;7880;50.110;9.372;2023-11-21T21:48:30;4.130769230769232;;;3.2;;
15557;SDS011;7880;50.110;9.372;2023-11-21T21:53:32;3.969230769230769;;;2.8;;
15557;SDS011;7880;50.110;9.372;2023-11-21T21:58:36;4.830769230769231;;;2.7307692307692295;;
15557;SDS011;7880;50.110;9.372;2023-11-21T22:03:40;3.2307692307692295;;;2.530769230769231;;
15557;SDS011;7880;50.110;9.372;2023-11-21T22:08:43;3.130769230769232;;;2.8;;
15557;SDS011;7880;50.110;9.372;2023-11-21T22:13:47;4.830769230769231;;;2.530769230769231;;
15557;SDS011;7880;50.110;9.372;2023-11-21T22:18:56;4.6692307692307695;;;2.830769230769231;;
15557;SDS011;7880;50.110;9.372;2023-11-21T22:23:56;3.0307692307692307;;;2.4461538461538463;;
15557;SDS011;7880;50.110;9.372;2023-11-21T22:28:56;4.5;;;3.0;;
15557;SDS011;7880;50.110;9.372;2023-11-21T22:33:59;10.238461538461536;;;5.9;;
15557;SDS011;7880;50.110;9.372;2023-11-21T22:39:05;4.861538461538461;;;2.899999999999999;;
15557;SDS011;7880;50.110;9.372;2023-11-21T22:44:10;4.138461538461539;;;2.8692307692307684;;
15557;SDS011;7880;50.110;9.372;2023-11-21T22:49:11;6.299999999999998;;;3.2307692307692295;;
15557;SDS011;7880;50.110;9.372;2023-11-21T22:54:22;5.338461538461538;;;3.0;;
15557;SDS011;7880;50.110;9.372;2023-11-21T22:59:18;3.1923076923076925;;;2.6000000000000005;;
15557;SDS011;7880;50.110;9.372;2023-11-21T23:04:23;3.030769230769231;;;2.3000000000000003;;
15557;SDS011;7880;50.110;9.372;2023-11-21T23:09:25;3.8615384615384603;;;2.7;;